Cato, Indiana
Current Conditions -  °F | °C
As of 3:55 PM on Monday 20 Oct 2014 (Local Time) from KHNB Reporting Station
Broken Clouds Broken Clouds  
Wind Chill: 70°   Ceiling: 5000
Heat Index: 70°   Visibility: 10mi
Dew Point: 54°   Wind: 14mph
Humidity: 56%   Direction: 270°W
Pressure: 29.89"   Gusts: NA
Location:  38.3488°N, 87.2217°W
Report Text: KHNB 202055Z AUTO 27012KT 10SM SCT044 BKN050 21/12 A2989 RMK AO1 57010
Loading
Personal Weather Stations






























Interactive Weather Map
Tropical Storm Tracking
New forecast layout! Learn more

10-Day Weather Forecast

Advertisements
Track Severe Weather on mobile